Time;durP1;ratioP1;P1;durP2;ratioP2;P2;SDS_P1;SDS_P2;PMS_P1;PMS_P2;Temp;Humidity;BMP_temperature;BMP_pressure;BME280_temperature;BME280_humidity;BME280_pressure;Samples;Min_cycle;Max_cycle;Signal;HPM_P1;HPM_P2
2021/12/18 00:02:03;;;;;;;26.40;9.10;;;;;;;2.66;100.00;98519.88;10454005;28;20188;-76
2021/12/18 00:07:03;;;;;;;21.67;9.03;;;;;;;2.64;100.00;98519.91;10453529;28;20180;-75
2021/12/18 00:12:04;;;;;;;19.50;8.63;;;;;;;2.68;100.00;98521.50;10453315;28;20188;-75
2021/12/18 00:17:05;;;;;;;19.13;9.80;;;;;;;2.65;100.00;98518.19;10453177;28;20319;-76
2021/12/18 00:22:05;;;;;;;19.53;9.27;;;;;;;2.66;100.00;98507.78;10452144;28;20205;-76
2021/12/18 00:27:06;;;;;;;25.17;10.47;;;;;;;2.58;100.00;98502.06;10452509;28;20234;-77
2021/12/18 00:32:06;;;;;;;25.23;10.43;;;;;;;2.68;100.00;98500.78;10452940;28;20188;-75
2021/12/18 00:37:07;;;;;;;22.57;10.33;;;;;;;2.65;100.00;98506.09;10451347;28;20219;-75
2021/12/18 00:42:19;;;;;;;19.23;9.77;;;;;;;2.62;100.00;98503.63;10452869;28;20200;-76
2021/12/18 00:47:20;;;;;;;23.17;10.63;;;;;;;2.34;100.00;98501.28;10452186;28;20202;-76
2021/12/18 00:52:20;;;;;;;19.20;11.00;;;;;;;2.43;100.00;98500.09;10451637;28;20265;-75
2021/12/18 00:57:20;;;;;;;21.47;9.40;;;;;;;2.45;100.00;98499.13;10451180;28;20366;-75
2021/12/18 01:02:21;;;;;;;17.03;9.00;;;;;;;2.46;100.00;98489.63;10450827;28;20187;-75
2021/12/18 01:07:21;;;;;;;19.30;9.33;;;;;;;2.35;100.00;98491.81;10459238;28;20194;-75
2021/12/18 01:12:30;;;;;;;20.47;9.67;;;;;;;2.44;100.00;98497.44;10458332;28;20273;-75
2021/12/18 01:27:40;;;;;;;20.47;8.47;;;;;;;2.58;100.00;98494.31;10459356;28;20285;-76
2021/12/18 01:32:41;;;;;;;19.40;9.73;;;;;;;2.58;100.00;98506.41;10459199;28;20192;-76
2021/12/18 01:37:43;;;;;;;18.93;10.13;;;;;;;2.46;100.00;98508.56;10459402;28;20216;-76
2021/12/18 01:53:02;;;;;;;24.80;9.87;;;;;;;2.44;100.00;98510.38;10461338;28;20228;-76
2021/12/18 01:58:04;;;;;;;18.50;8.87;;;;;;;2.63;100.00;98509.63;10458546;28;20224;-76
2021/12/18 02:03:05;;;;;;;16.53;9.33;;;;;;;2.57;100.00;98509.88;10457531;28;20198;-75
2021/12/18 02:08:06;;;;;;;19.40;9.57;;;;;;;2.58;100.00;98499.47;10458763;28;20713;-76
2021/12/18 02:13:24;;;;;;;19.03;8.33;;;;;;;2.65;100.00;98490.56;10456569;28;20190;-75
2021/12/18 02:23:44;;;;;;;17.07;9.60;;;;;;;2.46;100.00;98500.81;10457707;28;20228;-75
2021/12/18 02:28:47;;;;;;;15.57;7.80;;;;;;;2.41;100.00;98481.22;10456427;28;20275;-76
2021/12/18 02:33:47;;;;;;;13.50;8.57;;;;;;;2.62;100.00;98484.66;10457079;28;20188;-77
2021/12/18 02:43:49;;;;;;;14.57;8.43;;;;;;;2.37;100.00;98472.72;10455305;28;20663;-76
2021/12/18 02:48:51;;;;;;;19.33;10.00;;;;;;;2.46;100.00;98477.53;10456543;28;20180;-76
2021/12/18 02:53:53;;;;;;;13.27;7.37;;;;;;;2.62;100.00;98474.31;10455246;28;20302;-76
2021/12/18 02:58:59;;;;;;;11.97;7.33;;;;;;;2.54;100.00;98481.56;10454504;28;20798;-75
2021/12/18 03:04:02;;;;;;;12.53;6.50;;;;;;;2.55;100.00;98472.91;10456154;28;20226;-76
2021/12/18 03:24:43;;;;;;;13.07;6.17;;;;;;;2.52;100.00;98467.84;10437154;28;20593;-76
2021/12/18 03:29:43;;;;;;;8.33;5.13;;;;;;;2.49;100.00;98471.41;10453315;28;20227;-76
2021/12/18 03:34:44;;;;;;;7.27;4.77;;;;;;;2.45;100.00;98473.28;10454523;28;20283;-76
2021/12/18 03:39:45;;;;;;;10.07;5.20;;;;;;;2.48;100.00;98461.94;10453345;28;20191;-76
2021/12/18 03:44:46;;;;;;;8.23;4.97;;;;;;;2.50;100.00;98460.16;10436626;28;20659;-76
2021/12/18 03:49:46;;;;;;;8.23;5.17;;;;;;;2.52;100.00;98463.50;10453037;28;20311;-76
2021/12/18 03:54:46;;;;;;;10.23;5.13;;;;;;;2.54;100.00;98466.88;10453622;28;20199;-76
2021/12/18 03:59:47;;;;;;;13.20;6.67;;;;;;;2.51;100.00;98464.41;10453576;28;20196;-76
2021/12/18 04:04:47;;;;;;;10.03;6.73;;;;;;;2.50;100.00;98466.16;10430161;28;20202;-76
2021/12/18 04:09:48;;;;;;;11.63;7.20;;;;;;;2.35;100.00;98460.78;10405099;28;20195;-75
2021/12/18 04:14:49;;;;;;;12.57;7.53;;;;;;;2.27;100.00;98468.84;10403436;28;20196;-75
2021/12/18 04:19:49;;;;;;;12.10;6.97;;;;;;;2.35;100.00;98461.59;10403384;28;20188;-76
2021/12/18 04:24:50;;;;;;;14.00;7.60;;;;;;;2.48;100.00;98462.81;10404121;28;20278;-75
2021/12/18 04:29:50;;;;;;;15.37;9.13;;;;;;;2.52;100.00;98460.91;10404243;28;20184;-76
2021/12/18 04:34:50;;;;;;;15.40;8.00;;;;;;;2.55;100.00;98457.38;10404282;28;20584;-76
2021/12/18 04:39:52;;;;;;;16.43;8.90;;;;;;;2.42;100.00;98447.53;10403655;28;20321;-75
2021/12/18 04:44:52;;;;;;;17.70;9.00;;;;;;;2.27;100.00;98448.16;10404771;28;20306;-75
2021/12/18 04:49:52;;;;;;;20.50;8.90;;;;;;;2.31;100.00;98440.22;10403429;28;20292;-75
2021/12/18 04:54:53;;;;;;;12.07;6.60;;;;;;;2.36;100.00;98436.56;10403029;28;20235;-76
2021/12/18 04:59:54;;;;;;;12.47;6.80;;;;;;;2.44;100.00;98443.13;10402446;28;20194;-75
2021/12/18 05:04:55;;;;;;;14.23;8.03;;;;;;;2.47;100.00;98435.25;10409981;28;20192;-76
2021/12/18 05:09:55;;;;;;;13.27;8.50;;;;;;;2.36;100.00;98442.63;10410326;28;20677;-76
2021/12/18 05:14:55;;;;;;;16.50;8.53;;;;;;;2.44;100.00;98450.88;10410887;28;20274;-76
2021/12/18 05:19:56;;;;;;;12.07;7.27;;;;;;;2.61;100.00;98451.94;10410819;28;20192;-76
2021/12/18 05:24:56;;;;;;;12.50;7.67;;;;;;;2.50;100.00;98466.16;10409452;28;20239;-76
2021/12/18 05:29:56;;;;;;;10.33;5.90;;;;;;;2.53;100.00;98459.16;10410612;28;20224;-76
2021/12/18 05:34:57;;;;;;;4.20;2.90;;;;;;;2.44;100.00;98453.47;10410149;28;20209;-76
2021/12/18 05:39:58;;;;;;;5.83;3.77;;;;;;;2.44;100.00;98466.41;10410547;28;20193;-76
2021/12/18 05:44:59;;;;;;;4.97;3.10;;;;;;;2.35;100.00;98466.78;10409158;28;20268;-76
2021/12/18 05:49:59;;;;;;;5.57;3.53;;;;;;;2.45;100.00;98472.41;10409733;28;20219;-76
2021/12/18 05:54:59;;;;;;;5.23;3.77;;;;;;;2.26;100.00;98469.75;10417405;28;20589;-76
2021/12/18 06:00:00;;;;;;;6.33;4.33;;;;;;;2.14;100.00;98465.88;10416104;28;20189;-76
2021/12/18 06:05:01;;;;;;;8.77;4.67;;;;;;;2.14;100.00;98476.22;10415932;28;20196;-76
2021/12/18 06:10:02;;;;;;;7.33;5.17;;;;;;;2.22;100.00;98460.41;10416476;28;20192;-76
2021/12/18 06:15:02;;;;;;;9.27;5.93;;;;;;;2.16;100.00;98456.34;10417060;28;20216;-76
2021/12/18 06:20:03;;;;;;;8.93;6.03;;;;;;;2.26;100.00;98457.63;10416294;28;20197;-76
2021/12/18 06:25:04;;;;;;;20.83;10.47;;;;;;;2.31;100.00;98465.22;10415994;28;20286;-76
2021/12/18 06:30:12;;;;;;;8.37;5.53;;;;;;;2.36;100.00;98455.53;10412600;28;20376;-76
2021/12/18 06:35:16;;;;;;;7.13;5.40;;;;;;;2.18;100.00;98457.13;10411002;28;20224;-76
2021/12/18 06:40:23;;;;;;;8.33;5.53;;;;;;;2.19;100.00;98463.13;10411719;28;20214;-76
2021/12/18 06:50:59;;;;;;;7.97;5.30;;;;;;;2.27;100.00;98449.00;10408136;28;20382;-76
2021/12/18 06:56:00;;;;;;;9.50;6.00;;;;;;;2.35;100.00;98447.84;10415245;28;20220;-76
2021/12/18 07:01:00;;;;;;;8.17;5.63;;;;;;;2.11;100.00;98438.44;10414844;28;20193;-75
2021/12/18 07:06:00;;;;;;;9.73;6.23;;;;;;;2.09;100.00;98444.56;10414360;28;20668;-75
2021/12/18 07:11:01;;;;;;;9.03;5.67;;;;;;;2.25;100.00;98449.94;10414251;28;20660;-76
2021/12/18 07:16:01;;;;;;;10.67;7.00;;;;;;;2.12;100.00;98457.34;10415320;28;20220;-75
2021/12/18 07:21:02;;;;;;;10.17;6.67;;;;;;;2.13;100.00;98444.38;10425493;28;20224;-75
2021/12/18 07:26:02;;;;;;;10.40;6.50;;;;;;;2.18;100.00;98435.59;10414159;28;20642;-75
2021/12/18 07:31:03;;;;;;;10.50;7.83;;;;;;;2.26;100.00;98439.53;10413093;28;20246;-75
2021/12/18 07:36:07;;;;;;;10.10;7.23;;;;;;;2.28;100.00;98431.72;10411749;28;20227;-75
2021/12/18 07:41:08;;;;;;;11.33;8.27;;;;;;;2.17;100.00;98437.31;10413175;28;20188;-75
2021/12/18 07:46:08;;;;;;;12.03;8.57;;;;;;;2.25;100.00;98435.28;10395960;28;20199;-75
2021/12/18 07:51:09;;;;;;;16.83;10.43;;;;;;;2.42;100.00;98434.59;10409511;28;20210;-75
2021/12/18 07:56:10;;;;;;;15.23;9.53;;;;;;;2.37;100.00;98444.28;10410905;28;20592;-75
2021/12/18 08:01:10;;;;;;;16.27;10.33;;;;;;;2.29;100.00;98447.16;10411421;28;20192;-75
2021/12/18 08:06:11;;;;;;;15.67;10.60;;;;;;;2.41;100.00;98445.84;10407239;28;20192;-75
2021/12/18 08:11:11;;;;;;;13.00;8.93;;;;;;;2.28;100.00;98449.81;10410842;28;20200;-75
2021/12/18 08:16:11;;;;;;;12.07;8.10;;;;;;;2.09;100.00;98455.72;10409348;28;20212;-75
2021/12/18 08:21:13;;;;;;;19.13;10.40;;;;;;;2.23;100.00;98450.00;10409845;28;20188;-75
2021/12/18 08:26:14;;;;;;;14.67;9.43;;;;;;;2.24;100.00;98453.44;10410282;28;20232;-75
2021/12/18 08:31:14;;;;;;;15.17;9.50;;;;;;;2.20;100.00;98444.97;10408659;28;20192;-75
2021/12/18 08:36:14;;;;;;;11.53;7.83;;;;;;;2.35;100.00;98445.25;10410164;28;20251;-75
2021/12/18 08:41:16;;;;;;;15.40;8.87;;;;;;;2.48;100.00;98442.09;10411136;28;20200;-75
2021/12/18 08:46:16;;;;;;;11.87;8.40;;;;;;;2.50;100.00;98431.69;10409391;28;20196;-75
2021/12/18 08:51:17;;;;;;;15.77;9.40;;;;;;;2.55;100.00;98441.84;10409781;28;20873;-75
2021/12/18 08:56:17;;;;;;;11.70;9.07;;;;;;;2.53;100.00;98444.50;10392132;28;20688;-75
2021/12/18 09:01:18;;;;;;;12.90;9.10;;;;;;;2.71;100.00;98447.22;10409232;28;20569;-75
2021/12/18 09:06:18;;;;;;;9.90;8.07;;;;;;;2.90;100.00;98447.28;10410108;28;20670;-75
2021/12/18 09:11:20;;;;;;;12.37;7.80;;;;;;;3.04;100.00;98450.94;10408119;28;20692;-75
2021/12/18 09:16:21;;;;;;;10.93;8.43;;;;;;;2.85;100.00;98450.91;10408539;28;20217;-75
2021/12/18 09:21:22;;;;;;;11.27;7.60;;;;;;;3.01;100.00;98447.66;10409633;28;20217;-75
2021/12/18 09:26:22;;;;;;;10.47;7.70;;;;;;;2.96;100.00;98437.50;10411880;28;20234;-75
2021/12/18 09:31:26;;;;;;;10.73;7.33;;;;;;;2.90;100.00;98435.19;10416007;28;20660;-76
2021/12/18 09:36:27;;;;;;;10.77;8.37;;;;;;;3.00;100.00;98428.72;10416838;28;20212;-75
2021/12/18 09:41:27;;;;;;;11.27;8.13;;;;;;;3.11;100.00;98425.66;10416450;28;20192;-76
2021/12/18 09:46:30;;;;;;;9.67;6.77;;;;;;;3.22;100.00;98427.78;10398782;28;20715;-75
2021/12/18 09:51:31;;;;;;;14.03;8.47;;;;;;;3.15;100.00;98416.81;10416188;28;20211;-78
2021/12/18 09:56:31;;;;;;;9.20;6.47;;;;;;;3.06;100.00;98412.06;10415955;28;20227;-78
2021/12/18 10:01:32;;;;;;;9.33;6.80;;;;;;;3.29;100.00;98402.44;10414884;28;20551;-77
2021/12/18 10:06:43;;;;;;;10.17;6.93;;;;;;;3.26;100.00;98400.81;10415700;28;20180;-77
2021/12/18 10:12:14;;;;;;;8.73;7.07;;;;;;;3.25;100.00;98396.56;10414170;28;20259;-77
2021/12/18 10:17:34;;;;;;;9.43;6.77;;;;;;;3.53;100.00;98392.69;10407403;28;20327;-77
2021/12/18 10:22:49;;;;;;;8.53;6.60;;;;;;;3.36;100.00;98383.94;10395827;28;20878;-78
2021/12/18 10:27:57;;;;;;;13.13;8.80;;;;;;;3.43;100.00;98376.75;10415618;28;20225;-77
2021/12/18 10:33:10;;;;;;;8.40;6.23;;;;;;;3.52;100.00;98365.09;10412584;28;20270;-77
2021/12/18 10:38:37;;;;;;;9.80;6.80;;;;;;;3.29;100.00;98360.97;10413927;28;20304;-76
2021/12/18 10:44:08;;;;;;;13.30;8.97;;;;;;;3.45;100.00;98356.78;10413037;28;20188;-76
2021/12/18 10:49:14;;;;;;;11.63;7.00;;;;;;;3.29;100.00;98350.63;10410640;28;20956;-76
2021/12/18 10:54:18;;;;;;;12.60;7.27;;;;;;;3.25;100.00;98341.31;10412215;28;20192;-76
2021/12/18 10:59:23;;;;;;;9.70;7.27;;;;;;;3.22;100.00;98340.53;10414223;28;20224;-76
2021/12/18 11:04:32;;;;;;;9.43;6.60;;;;;;;3.30;100.00;98332.44;10413221;28;20554;-76
2021/12/18 11:09:34;;;;;;;10.67;7.30;;;;;;;3.32;100.00;98329.75;10413022;28;20725;-76
2021/12/18 11:14:41;;;;;;;12.23;9.50;;;;;;;3.68;100.00;98327.19;10413300;28;20197;-76
2021/12/18 11:19:42;;;;;;;7.07;5.37;;;;;;;3.47;100.00;98326.44;10411914;28;20216;-76
2021/12/18 11:24:58;;;;;;;6.57;4.97;;;;;;;3.41;100.00;98313.78;10410611;28;20323;-76
2021/12/18 11:30:13;;;;;;;6.27;5.00;;;;;;;3.37;100.00;98307.09;10411747;28;20212;-77
2021/12/18 11:41:38;;;;;;;9.07;5.77;;;;;;;3.63;100.00;98290.31;10414376;28;20196;-76
2021/12/18 11:46:41;;;;;;;8.07;6.03;;;;;;;3.70;100.00;98277.88;10412794;28;20551;-75
2021/12/18 11:51:56;;;;;;;8.13;6.00;;;;;;;3.56;100.00;98275.97;10412024;28;20359;-75
2021/12/18 11:56:56;;;;;;;8.20;6.43;;;;;;;3.44;100.00;98269.59;10411459;28;20219;-75
2021/12/18 12:01:57;;;;;;;9.70;7.07;;;;;;;3.38;100.00;98275.06;10410686;28;20185;-75
2021/12/18 12:07:18;;;;;;;8.17;6.57;;;;;;;3.38;100.00;98262.13;10408604;28;20251;-75
2021/12/18 12:12:18;;;;;;;9.83;6.63;;;;;;;3.65;100.00;98251.38;10394373;28;20287;-75
2021/12/18 12:17:27;;;;;;;9.13;6.87;;;;;;;3.55;100.00;98249.22;10410415;28;20228;-75
2021/12/18 12:22:43;;;;;;;10.93;7.33;;;;;;;3.32;100.00;98246.88;10411099;28;20614;-76
2021/12/18 12:27:47;;;;;;;11.63;7.17;;;;;;;3.31;100.00;98248.63;10409898;28;20247;-75
2021/12/18 12:32:56;;;;;;;12.00;8.33;;;;;;;3.45;100.00;98237.63;10410680;28;20211;-75
2021/12/18 12:37:57;;;;;;;11.10;7.00;;;;;;;3.61;100.00;98236.88;10410829;28;20232;-75
2021/12/18 12:43:13;;;;;;;12.60;8.37;;;;;;;3.54;100.00;98244.13;10410808;28;20279;-75
2021/12/18 12:48:16;;;;;;;13.87;8.60;;;;;;;3.54;100.00;98239.75;10411042;28;20251;-75
2021/12/18 12:53:16;;;;;;;13.17;10.40;;;;;;;3.18;100.00;98239.75;10409629;28;20303;-75
2021/12/18 12:58:24;;;;;;;16.07;10.70;;;;;;;3.30;100.00;98228.00;10410599;28;20285;-77
2021/12/18 13:03:28;;;;;;;16.33;11.30;;;;;;;2.98;100.00;98231.19;10417914;28;20199;-76
2021/12/18 13:08:32;;;;;;;17.30;11.20;;;;;;;2.99;100.00;98216.50;10417592;28;20334;-76
2021/12/18 13:13:34;;;;;;;18.97;13.80;;;;;;;2.85;100.00;98212.81;10415593;28;20323;-76
2021/12/18 13:18:39;;;;;;;17.60;12.63;;;;;;;2.92;100.00;98209.94;10414211;28;20303;-76
2021/12/18 13:23:45;;;;;;;18.17;12.93;;;;;;;2.82;100.00;98197.41;10415695;28;20236;-77
2021/12/18 13:28:48;;;;;;;16.10;10.40;;;;;;;3.10;100.00;98197.88;10417876;28;20267;-77
2021/12/18 13:33:58;;;;;;;15.80;10.83;;;;;;;3.28;100.00;98197.00;10415683;28;20192;-76
2021/12/18 13:39:06;;;;;;;21.40;12.03;;;;;;;3.03;100.00;98205.94;10416488;28;20224;-76
2021/12/18 13:44:06;;;;;;;20.67;12.93;;;;;;;2.68;100.00;98200.63;10415875;28;20576;-76
2021/12/18 13:49:06;;;;;;;18.33;10.97;;;;;;;2.90;100.00;98198.81;10417414;28;20196;-77
2021/12/18 13:54:07;;;;;;;17.27;12.00;;;;;;;2.82;100.00;98201.75;10417033;28;20555;-77
2021/12/18 13:59:18;;;;;;;23.47;12.90;;;;;;;2.92;100.00;98196.97;10415710;28;20593;-76
2021/12/18 14:04:21;;;;;;;20.27;13.87;;;;;;;2.60;100.00;98189.78;10416855;28;20660;-77
2021/12/18 14:09:24;;;;;;;22.80;13.63;;;;;;;2.55;100.00;98189.16;10415580;28;20199;-76
2021/12/18 14:14:48;;;;;;;21.23;13.07;;;;;;;2.42;100.00;98185.44;10415662;28;20215;-76
2021/12/18 14:19:49;;;;;;;21.43;11.47;;;;;;;2.50;100.00;98178.19;10415919;28;20232;-77
2021/12/18 14:25:02;;;;;;;18.80;10.63;;;;;;;2.72;100.00;98167.69;10416104;28;20236;-77
2021/12/18 14:30:03;;;;;;;22.77;11.30;;;;;;;2.63;100.00;98161.22;10415241;28;20227;-77
2021/12/18 14:35:04;;;;;;;17.97;8.13;;;;;;;2.48;100.00;98151.53;10416601;28;20227;-77
2021/12/18 14:40:05;;;;;;;19.63;11.67;;;;;;;2.47;100.00;98142.97;10411995;28;20239;-77
2021/12/18 14:45:19;;;;;;;21.10;11.07;;;;;;;2.37;100.00;98152.03;10411802;28;20263;-77
2021/12/18 14:50:25;;;;;;;14.77;8.53;;;;;;;2.43;100.00;98141.41;10407561;28;20272;-76
2021/12/18 14:55:31;;;;;;;17.03;10.03;;;;;;;2.48;100.00;98138.63;10407764;28;20535;-76
2021/12/18 15:00:48;;;;;;;15.97;7.90;;;;;;;2.47;100.00;98130.03;10406748;28;20731;-77
2021/12/18 15:06:11;;;;;;;15.73;8.93;;;;;;;2.44;100.00;98137.94;10405195;28;20268;-76
2021/12/18 15:11:15;;;;;;;18.10;10.23;;;;;;;2.44;100.00;98140.50;10404062;28;20327;-77
2021/12/18 15:16:31;;;;;;;20.43;11.57;;;;;;;2.51;100.00;98135.88;10404364;28;20299;-76
2021/12/18 15:21:32;;;;;;;10.87;7.03;;;;;;;2.61;100.00;98121.63;10406819;28;20192;-77
2021/12/18 15:26:34;;;;;;;14.10;9.07;;;;;;;2.65;100.00;98106.81;10404202;28;20696;-77
2021/12/18 15:31:35;;;;;;;16.17;8.97;;;;;;;2.59;100.00;98107.06;10403725;28;20188;-77
2021/12/18 15:36:41;;;;;;;11.20;6.97;;;;;;;2.76;100.00;98096.78;10403311;28;20704;-77
2021/12/18 15:41:43;;;;;;;9.27;6.40;;;;;;;2.63;100.00;98093.09;10398238;28;20205;-77
2021/12/18 15:46:44;;;;;;;10.33;6.17;;;;;;;2.69;100.00;98079.84;10402631;28;20256;-77
2021/12/18 15:51:45;;;;;;;12.87;6.47;;;;;;;2.52;100.00;98090.19;10403081;28;20299;-77
2021/12/18 15:56:45;;;;;;;8.60;4.77;;;;;;;2.62;100.00;98089.69;10387299;28;20677;-77
2021/12/18 16:01:46;;;;;;;9.60;4.93;;;;;;;2.71;100.00;98096.16;10405211;28;20544;-76
2021/12/18 16:06:47;;;;;;;6.27;4.33;;;;;;;2.76;100.00;98085.59;10405784;28;20672;-77
2021/12/18 16:11:47;;;;;;;7.33;4.87;;;;;;;2.76;100.00;98094.19;10402675;28;20220;-76
2021/12/18 16:16:49;;;;;;;10.63;5.93;;;;;;;2.77;100.00;98084.66;10404338;28;20584;-77
2021/12/18 16:21:49;;;;;;;8.97;5.83;;;;;;;2.76;100.00;98089.00;10405355;28;20334;-78
2021/12/18 16:26:51;;;;;;;7.77;5.50;;;;;;;2.71;100.00;98088.41;10408056;28;20924;-79
2021/12/18 16:31:51;;;;;;;7.30;4.90;;;;;;;2.73;100.00;98078.81;10406543;28;20196;-78
2021/12/18 16:36:53;;;;;;;8.73;6.00;;;;;;;2.73;100.00;98077.97;10409284;28;20220;-78
2021/12/18 16:41:54;;;;;;;6.37;5.00;;;;;;;2.80;100.00;98072.44;10411236;28;20279;-78
2021/12/18 16:46:54;;;;;;;8.90;6.17;;;;;;;2.64;100.00;98074.06;10410267;28;20283;-77
2021/12/18 16:51:55;;;;;;;8.60;6.13;;;;;;;2.67;100.00;98071.34;10410285;28;20669;-77
2021/12/18 16:56:55;;;;;;;6.73;5.33;;;;;;;2.70;100.00;98073.78;10394853;28;20982;-77
2021/12/18 17:01:55;;;;;;;7.50;5.47;;;;;;;2.74;100.00;98082.22;10413236;28;20246;-77
2021/12/18 17:06:56;;;;;;;7.17;5.07;;;;;;;2.79;100.00;98075.94;10414477;28;20196;-77
2021/12/18 17:12:00;;;;;;;7.20;5.33;;;;;;;2.74;100.00;98070.16;10411305;28;20204;-78
2021/12/18 17:17:00;;;;;;;7.00;5.43;;;;;;;2.75;100.00;98066.63;10415131;28;20246;-77
2021/12/18 17:22:02;;;;;;;7.50;4.90;;;;;;;2.90;100.00;98061.63;10424959;28;20193;-77
2021/12/18 17:27:03;;;;;;;7.47;4.97;;;;;;;2.88;100.00;98059.13;10438712;28;20224;-77
2021/12/18 17:32:05;;;;;;;5.40;3.97;;;;;;;2.93;100.00;98058.91;10452203;28;20248;-77
2021/12/18 17:37:07;;;;;;;5.33;4.47;;;;;;;2.98;100.00;98056.91;10441050;28;20228;-77
2021/12/18 17:42:10;;;;;;;5.97;4.60;;;;;;;2.91;100.00;98053.78;10455803;28;20307;-78
2021/12/18 17:47:12;;;;;;;6.47;4.63;;;;;;;3.02;100.00;98048.09;10444216;28;20188;-78
2021/12/18 17:52:12;;;;;;;5.17;4.20;;;;;;;3.10;100.00;98045.13;10462393;28;20218;-77
2021/12/18 17:57:14;;;;;;;6.47;5.30;;;;;;;3.03;100.00;98034.22;10457796;28;20227;-77
2021/12/18 18:02:14;;;;;;;4.93;4.37;;;;;;;3.09;100.00;98030.47;10461898;28;20292;-77
2021/12/18 18:07:16;;;;;;;5.87;4.57;;;;;;;3.04;100.00;98022.94;10462860;28;20188;-77
2021/12/18 18:12:17;;;;;;;5.13;4.63;;;;;;;3.12;100.00;98007.84;10461930;28;20177;-77
2021/12/18 18:17:17;;;;;;;7.27;5.20;;;;;;;3.15;100.00;98018.06;10459542;28;20224;-77
2021/12/18 18:22:17;;;;;;;7.17;4.70;;;;;;;3.23;100.00;98015.06;10459219;28;20184;-77
2021/12/18 18:27:18;;;;;;;5.57;4.73;;;;;;;3.27;100.00;98003.66;10438806;28;20708;-77
2021/12/18 18:32:19;;;;;;;6.10;5.03;;;;;;;3.32;100.00;97993.91;10420605;28;20571;-77
2021/12/18 18:37:19;;;;;;;6.47;5.63;;;;;;;3.32;100.00;97996.50;10423567;28;20228;-78
2021/12/18 18:42:20;;;;;;;7.13;5.83;;;;;;;3.41;100.00;97997.75;10420599;28;20266;-77
2021/12/18 18:47:26;;;;;;;6.00;5.27;;;;;;;3.39;100.00;97984.88;10418750;28;20259;-77
2021/12/18 18:52:26;;;;;;;8.60;6.63;;;;;;;3.37;100.00;97988.50;10416843;28;20224;-77
2021/12/18 18:57:27;;;;;;;8.13;6.43;;;;;;;3.52;100.00;97963.50;10416839;28;20228;-77
2021/12/18 19:02:29;;;;;;;7.10;5.43;;;;;;;3.48;100.00;97957.66;10420567;28;20191;-77
2021/12/18 19:07:30;;;;;;;6.20;5.40;;;;;;;3.53;100.00;97963.44;10414674;28;20255;-77
2021/12/18 19:12:31;;;;;;;7.27;5.90;;;;;;;3.57;100.00;97966.72;10413576;28;20661;-77
2021/12/18 19:17:32;;;;;;;8.87;7.60;;;;;;;3.56;100.00;97958.09;10413579;28;20302;-78
2021/12/18 19:22:34;;;;;;;24.90;20.97;;;;;;;3.59;100.00;97958.88;10412466;28;20678;-78
2021/12/18 19:27:37;;;;;;;8.53;7.63;;;;;;;3.70;100.00;97956.53;10408072;28;20220;-78
2021/12/18 19:32:38;;;;;;;7.53;5.87;;;;;;;3.75;100.00;97957.97;10410524;28;20672;-78
2021/12/18 19:37:39;;;;;;;5.13;4.60;;;;;;;3.67;100.00;97941.97;10414267;28;20212;-78
2021/12/18 19:42:39;;;;;;;25.73;18.60;;;;;;;3.70;100.00;97939.22;10415193;28;20196;-78
2021/12/18 19:47:40;;;;;;;6.17;5.40;;;;;;;3.72;100.00;97936.53;10414880;28;20528;-76
2021/12/18 19:52:41;;;;;;;8.77;6.80;;;;;;;3.60;100.00;97939.78;10414461;28;20213;-77
2021/12/18 19:57:41;;;;;;;4.87;4.37;;;;;;;3.65;100.00;97928.25;10412342;28;20213;-77
2021/12/18 20:02:56;;;;;;;5.27;4.07;;;;;;;3.66;100.00;97931.69;10414384;28;20249;-77
2021/12/18 20:07:58;;;;;;;4.97;4.10;;;;;;;3.71;100.00;97929.69;10411920;28;20184;-76
2021/12/18 20:12:59;;;;;;;5.00;3.97;;;;;;;3.54;100.00;97915.06;10411183;28;20605;-77
2021/12/18 20:18:00;;;;;;;4.73;3.97;;;;;;;3.67;100.00;97918.63;10413043;28;20223;-76
2021/12/18 20:23:03;;;;;;;5.87;3.83;;;;;;;3.74;100.00;97914.81;10412339;28;20219;-76
2021/12/18 20:28:05;;;;;;;6.23;4.57;;;;;;;3.65;100.00;97899.75;10413942;28;20228;-76
2021/12/18 20:33:06;;;;;;;7.40;5.37;;;;;;;3.71;100.00;97901.19;10373123;28;20657;-75
2021/12/18 20:38:07;;;;;;;5.13;4.63;;;;;;;3.77;100.00;97889.63;10369884;28;20229;-75
2021/12/18 20:43:08;;;;;;;6.30;5.17;;;;;;;3.71;100.00;97889.06;10397238;28;20196;-75
2021/12/18 20:48:08;;;;;;;6.43;5.43;;;;;;;3.77;100.00;97890.47;10411328;28;20275;-75
2021/12/18 20:53:08;;;;;;;6.67;5.20;;;;;;;3.80;100.00;97869.56;10409951;28;20209;-76
2021/12/18 20:58:09;;;;;;;9.57;6.37;;;;;;;3.90;100.00;97872.47;10410491;28;20530;-75
2021/12/18 21:03:10;;;;;;;9.73;6.83;;;;;;;3.74;100.00;97867.34;10409821;28;20729;-75
2021/12/18 21:08:10;;;;;;;10.03;6.63;;;;;;;3.91;100.00;97859.44;10409957;28;20184;-75
2021/12/18 21:13:11;;;;;;;14.33;6.93;;;;;;;3.86;100.00;97858.88;10409837;28;20202;-75
2021/12/18 21:18:12;;;;;;;10.90;7.90;;;;;;;3.95;100.00;97864.44;10406171;28;20249;-75
2021/12/18 21:23:13;;;;;;;14.80;8.57;;;;;;;3.93;100.00;97864.53;10413425;28;20192;-76
2021/12/18 21:28:15;;;;;;;12.17;9.07;;;;;;;3.82;100.00;97859.94;10415519;28;20188;-75
2021/12/18 21:33:22;;;;;;;12.63;8.70;;;;;;;3.87;100.00;97857.94;10418931;28;20230;-75
2021/12/18 21:38:23;;;;;;;10.20;7.07;;;;;;;3.97;100.00;97844.47;10415149;28;20213;-75
2021/12/18 21:43:24;;;;;;;13.47;7.40;;;;;;;3.98;100.00;97843.53;10415865;28;20192;-74
2021/12/18 21:48:24;;;;;;;12.07;7.53;;;;;;;3.91;100.00;97841.28;10415373;28;20529;-75
2021/12/18 21:53:25;;;;;;;14.10;8.77;;;;;;;3.92;100.00;97842.97;10417062;28;20244;-75
2021/12/18 21:58:26;;;;;;;13.67;9.30;;;;;;;3.89;100.00;97843.13;10416008;28;20693;-74
2021/12/18 22:03:26;;;;;;;12.90;8.57;;;;;;;3.97;100.00;97818.53;10416889;28;20216;-75
2021/12/18 22:08:27;;;;;;;14.57;10.20;;;;;;;3.91;100.00;97802.41;10415848;28;20195;-75
2021/12/18 22:13:27;;;;;;;16.07;10.13;;;;;;;3.95;100.00;97803.09;10416479;28;20215;-75
2021/12/18 22:18:28;;;;;;;16.40;10.93;;;;;;;4.09;100.00;97797.09;10414154;28;20294;-75
2021/12/18 22:23:28;;;;;;;17.40;10.77;;;;;;;4.10;100.00;97791.81;10410015;28;20197;-74
2021/12/18 22:28:28;;;;;;;19.47;10.17;;;;;;;4.02;100.00;97786.22;10413927;28;20275;-75
2021/12/18 22:33:31;;;;;;;17.57;10.80;;;;;;;4.08;100.00;97777.28;10413986;28;20192;-75
2021/12/18 22:38:31;;;;;;;17.50;10.03;;;;;;;4.14;100.00;97768.31;10413287;28;20305;-75
2021/12/18 22:43:32;;;;;;;17.27;10.20;;;;;;;4.05;100.00;97780.88;10414023;28;20276;-75
2021/12/18 22:48:32;;;;;;;16.20;9.53;;;;;;;4.07;100.00;97771.25;10415625;28;20204;-75
2021/12/18 22:53:32;;;;;;;16.80;11.73;;;;;;;4.02;100.00;97760.31;10415482;28;20235;-75
2021/12/18 22:58:39;;;;;;;15.63;10.70;;;;;;;4.08;100.00;97759.13;10414743;28;20287;-75
2021/12/18 23:03:39;;;;;;;16.70;10.33;;;;;;;4.05;100.00;97765.31;10415346;28;20307;-75
2021/12/18 23:08:40;;;;;;;15.40;9.77;;;;;;;4.18;100.00;97762.84;10415133;28;20603;-75
2021/12/18 23:13:57;;;;;;;17.97;10.10;;;;;;;4.07;100.00;97778.19;10414586;28;20246;-75
2021/12/18 23:19:38;;;;;;;18.77;10.20;;;;;;;4.15;100.00;97765.63;10413996;28;20251;-75
2021/12/18 23:24:24;;;;;;;19.87;9.90;;;;;;;4.08;100.00;97754.75;10414108;28;20704;-75
2021/12/18 23:29:25;;;;;;;14.10;8.60;;;;;;;4.18;100.00;97746.44;10413874;28;20193;-75
2021/12/18 23:34:26;;;;;;;12.37;8.43;;;;;;;4.11;100.00;97743.38;10413907;28;20243;-75
2021/12/18 23:39:26;;;;;;;19.83;8.20;;;;;;;4.16;100.00;97741.34;10413609;28;20315;-75
2021/12/18 23:49:46;;;;;;;12.63;7.20;;;;;;;4.13;100.00;97728.56;10413120;28;20244;-75
2021/12/18 23:54:46;;;;;;;15.77;6.40;;;;;;;4.15;100.00;97724.13;10412956;28;20747;-75
2021/12/18 23:59:46;;;;;;;13.77;7.83;;;;;;;4.24;100.00;97713.22;10412489;28;20226;-75
